createdAt,value
2023-02-19T00:01:19.874Z,7.23
2023-02-19T00:03:52.618Z,7.33
2023-02-19T00:06:20.521Z,7.30
2023-02-19T00:08:47.272Z,6.83
2023-02-19T00:11:20.606Z,6.99
2023-02-19T00:13:50.204Z,7.12
2023-02-19T00:16:28.144Z,7.12
2023-02-19T00:18:56.294Z,6.92
2023-02-19T00:21:23.836Z,6.85
2023-02-19T00:23:53.097Z,6.49
2023-02-19T00:26:20.037Z,6.87
2023-02-19T00:28:50.873Z,6.98
2023-02-19T00:31:27.113Z,6.88
2023-02-19T00:33:57.397Z,6.99
2023-02-19T00:36:25.750Z,6.57
2023-02-19T00:38:52.491Z,6.60
2023-02-19T00:41:21.421Z,6.79
2023-02-19T00:43:59.567Z,6.72
2023-02-19T00:46:46.421Z,6.59
2023-02-19T00:49:20.082Z,6.50
2023-02-19T00:51:47.651Z,6.48
2023-02-19T00:54:14.884Z,6.59
2023-02-19T00:56:42.244Z,6.45
2023-02-19T00:59:09.116Z,6.23
2023-02-19T01:01:36.129Z,6.30
2023-02-19T01:04:04.289Z,6.18
2023-02-19T01:06:32.982Z,6.23
2023-02-19T01:08:59.628Z,5.98
2023-02-19T01:11:27.310Z,5.86
2023-02-19T01:13:58.497Z,5.79
2023-02-19T01:16:25.345Z,5.73
2023-02-19T01:18:52.295Z,5.94
2023-02-19T01:21:22.074Z,5.98
2023-02-19T01:23:50.247Z,5.95
2023-02-19T01:26:29.246Z,5.37
2023-02-19T01:28:55.922Z,5.73
2023-02-19T01:31:24.428Z,5.74
2023-02-19T01:33:53.572Z,5.64
2023-02-19T01:36:20.349Z,5.55
2023-02-19T01:38:47.679Z,5.42
2023-02-19T01:41:17.029Z,4.85
2023-02-19T01:44:03.587Z,5.37
2023-02-19T01:46:41.711Z,5.24
2023-02-19T01:49:21.029Z,5.01
2023-02-19T01:51:52.933Z,5.17
2023-02-19T01:54:22.671Z,5.06
2023-02-19T01:56:50.145Z,5.20
2023-02-19T01:59:18.370Z,4.97
2023-02-19T02:01:45.211Z,4.85
2023-02-19T02:04:14.402Z,4.90
2023-02-19T02:06:49.948Z,4.81
2023-02-19T02:09:38.258Z,4.78
2023-02-19T02:12:05.469Z,4.77
2023-02-19T02:14:36.023Z,4.61
2023-02-19T02:17:25.902Z,4.78
2023-02-19T02:20:07.970Z,4.70
2023-02-19T02:22:37.661Z,4.66
2023-02-19T02:25:25.928Z,4.73
2023-02-19T02:28:09.524Z,4.73
2023-02-19T02:30:50.660Z,4.73
2023-02-19T02:33:39.809Z,4.89
2023-02-19T02:36:13.041Z,4.89
2023-02-19T02:38:44.020Z,4.85
2023-02-19T02:41:13.393Z,4.66
2023-02-19T02:43:40.202Z,4.73
2023-02-19T02:46:10.451Z,4.68
2023-02-19T02:48:55.517Z,4.58
2023-02-19T02:51:27.645Z,4.45
2023-02-19T02:54:25.851Z,4.53
2023-02-19T02:56:56.078Z,4.39
2023-02-19T02:59:30.439Z,4.24
2023-02-19T03:02:19.989Z,4.37
2023-02-19T03:05:15.645Z,4.52
2023-02-19T03:07:53.387Z,4.48
2023-02-19T03:10:28.477Z,4.48
2023-02-19T03:13:15.927Z,4.56
2023-02-19T03:16:20.203Z,4.09
2023-02-19T03:19:12.172Z,4.42
2023-02-19T03:21:42.319Z,4.30
2023-02-19T03:24:31.342Z,4.44
2023-02-19T03:27:04.341Z,4.37
2023-02-19T03:29:39.881Z,4.61
2023-02-19T03:32:18.283Z,4.41
2023-02-19T03:34:51.636Z,4.39
2023-02-19T03:37:25.258Z,4.50
2023-02-19T03:39:54.624Z,4.18
2023-02-19T03:42:55.815Z,4.42
2023-02-19T03:45:41.632Z,4.26
2023-02-19T03:48:32.314Z,4.54
2023-02-19T03:51:08.697Z,4.55
2023-02-19T03:53:47.743Z,4.59
2023-02-19T03:56:22.195Z,4.59
2023-02-19T03:59:16.839Z,4.51
2023-02-19T04:01:59.797Z,4.51
2023-02-19T04:04:53.479Z,4.15
2023-02-19T04:07:22.554Z,4.41
2023-02-19T04:09:51.977Z,4.53
2023-02-19T04:12:22.617Z,3.92
2023-02-19T04:14:54.830Z,4.39
2023-02-19T04:17:29.648Z,3.96
2023-02-19T04:19:59.505Z,4.34
2023-02-19T04:22:26.611Z,3.93
2023-02-19T04:24:55.519Z,4.10
2023-02-19T04:27:22.279Z,4.12
2023-02-19T04:29:48.966Z,4.08
2023-02-19T04:32:15.609Z,3.71
2023-02-19T04:34:42.334Z,4.02
2023-02-19T04:37:09.026Z,4.11
2023-02-19T04:39:35.665Z,4.05
2023-02-19T04:42:02.247Z,3.89
2023-02-19T04:44:28.949Z,4.06
2023-02-19T04:46:55.851Z,3.82
2023-02-19T04:49:22.556Z,4.07
2023-02-19T04:51:49.172Z,4.01
2023-02-19T04:54:15.929Z,3.84
2023-02-19T04:56:42.562Z,3.86
2023-02-19T04:59:09.913Z,3.38
2023-02-19T05:01:36.507Z,3.69
2023-02-19T05:04:04.866Z,3.43
2023-02-19T05:06:31.581Z,3.71
2023-02-19T05:08:58.409Z,3.56
2023-02-19T05:11:25.199Z,3.75
2023-02-19T05:13:51.927Z,3.46
2023-02-19T05:16:18.770Z,3.48
2023-02-19T05:18:46.645Z,3.56
2023-02-19T05:21:13.737Z,3.48
2023-02-19T05:23:40.887Z,3.42
2023-02-19T05:26:17.745Z,3.44
2023-02-19T05:28:45.772Z,3.11
2023-02-19T05:31:13.689Z,3.22
2023-02-19T05:33:42.925Z,2.92
2023-02-19T05:36:12.496Z,3.34
2023-02-19T05:38:40.107Z,3.28
2023-02-19T05:41:08.782Z,2.98
2023-02-19T05:43:35.603Z,2.94
2023-02-19T05:46:02.286Z,3.15
2023-02-19T05:48:29.045Z,3.14
2023-02-19T05:51:02.271Z,2.90
2023-02-19T05:53:28.932Z,3.10
2023-02-19T05:55:55.632Z,3.16
2023-02-19T05:58:22.307Z,3.18
2023-02-19T06:00:49.105Z,3.10
2023-02-19T06:03:15.873Z,2.73
2023-02-19T06:05:42.626Z,2.90
2023-02-19T06:08:12.565Z,3.00
2023-02-19T06:10:41.274Z,2.73
2023-02-19T06:13:09.360Z,2.61
2023-02-19T06:15:37.448Z,2.85
2023-02-19T06:18:04.371Z,2.80
2023-02-19T06:20:31.035Z,2.79
2023-02-19T06:22:57.861Z,2.83
2023-02-19T06:25:24.412Z,2.84
2023-02-19T06:27:51.005Z,2.82
2023-02-19T06:30:17.962Z,2.97
2023-02-19T06:32:44.638Z,2.87
2023-02-19T06:35:11.255Z,3.08
2023-02-19T06:37:37.831Z,3.03
2023-02-19T06:40:04.919Z,3.08
2023-02-19T06:42:33.020Z,2.95
2023-02-19T06:44:59.532Z,3.24
2023-02-19T06:47:26.216Z,2.97
2023-02-19T06:49:52.891Z,3.25
2023-02-19T06:52:19.511Z,3.18
2023-02-19T06:54:46.078Z,3.29
2023-02-19T06:57:12.818Z,3.19
2023-02-19T06:59:39.451Z,3.24
2023-02-19T07:02:06.232Z,3.36
2023-02-19T07:04:32.939Z,2.89
2023-02-19T07:07:00.326Z,3.42
2023-02-19T07:09:28.479Z,3.32
2023-02-19T07:11:55.165Z,4.02
2023-02-19T07:14:22.253Z,4.03
2023-02-19T07:16:49.195Z,4.45
2023-02-19T07:19:16.077Z,4.85
2023-02-19T07:21:43.206Z,5.25
2023-02-19T07:24:10.309Z,5.42
2023-02-19T07:26:36.984Z,6.17
2023-02-19T07:29:04.359Z,6.37
2023-02-19T07:31:31.055Z,6.81
2023-02-19T07:33:57.712Z,7.12
2023-02-19T07:36:24.838Z,7.41
2023-02-19T07:38:56.231Z,7.44
2023-02-19T07:41:23.746Z,7.70
2023-02-19T07:43:50.631Z,7.46
2023-02-19T07:46:17.203Z,7.64
2023-02-19T07:48:44.522Z,7.26
2023-02-19T07:51:16.457Z,7.28
2023-02-19T07:53:43.127Z,6.58
2023-02-19T07:56:11.316Z,6.97
2023-02-19T07:58:38.333Z,6.86
2023-02-19T08:01:09.191Z,7.17
2023-02-19T08:03:37.264Z,7.15
2023-02-19T08:06:04.680Z,6.96
2023-02-19T08:08:31.266Z,6.92
2023-02-19T08:11:21.105Z,7.43
2023-02-19T08:13:52.833Z,7.48
2023-02-19T08:16:29.716Z,7.47
2023-02-19T08:19:00.314Z,7.75
2023-02-19T08:21:26.935Z,7.66
2023-02-19T08:23:53.634Z,7.50
2023-02-19T08:26:20.311Z,7.07
2023-02-19T08:28:48.868Z,7.42
2023-02-19T08:31:15.755Z,7.64
2023-02-19T08:33:42.605Z,7.46
2023-02-19T08:36:10.684Z,7.61
2023-02-19T08:38:37.738Z,8.00
2023-02-19T08:41:09.683Z,8.02
2023-02-19T08:43:37.089Z,8.30
2023-02-19T08:46:04.445Z,8.27
2023-02-19T08:48:31.224Z,8.24
2023-02-19T08:51:02.078Z,7.97
2023-02-19T08:53:28.833Z,8.67
2023-02-19T08:55:55.490Z,8.86
2023-02-19T08:58:22.726Z,8.63
2023-02-19T09:00:49.285Z,8.01
2023-02-19T09:03:16.112Z,8.66
2023-02-19T09:05:42.644Z,8.72
2023-02-19T09:08:09.413Z,8.94
2023-02-19T09:10:35.935Z,9.30
2023-02-19T09:13:02.840Z,9.20
2023-02-19T09:15:29.803Z,8.82
2023-02-19T09:17:56.932Z,9.49
2023-02-19T09:20:23.753Z,9.52
2023-02-19T09:22:50.796Z,9.28
2023-02-19T09:25:17.513Z,9.75
2023-02-19T09:27:50.226Z,9.84
2023-02-19T09:30:17.070Z,9.02
2023-02-19T09:32:43.777Z,8.96
2023-02-19T09:35:10.456Z,9.36
2023-02-19T09:37:37.046Z,9.20
2023-02-19T09:40:03.886Z,9.39
2023-02-19T09:42:32.773Z,9.85
2023-02-19T09:45:01.741Z,9.66
2023-02-19T09:47:31.520Z,9.87
2023-02-19T09:50:07.520Z,9.26
2023-02-19T09:52:45.249Z,9.42
2023-02-19T09:55:30.206Z,9.66
2023-02-19T09:58:00.014Z,9.78
2023-02-19T10:00:30.389Z,9.93
2023-02-19T10:03:08.569Z,10.13
2023-02-19T10:05:35.689Z,9.94
2023-02-19T10:08:07.224Z,10.51
2023-02-19T10:10:36.521Z,10.05
2023-02-19T10:13:28.588Z,10.75
2023-02-19T10:15:57.231Z,11.31
2023-02-19T10:18:28.324Z,11.35
2023-02-19T10:20:56.654Z,11.15
2023-02-19T10:23:24.757Z,11.18
2023-02-19T10:25:57.208Z,11.55
2023-02-19T10:28:28.702Z,11.99
2023-02-19T10:31:00.808Z,11.61
2023-02-19T10:33:28.252Z,11.49
2023-02-19T10:35:59.198Z,11.83
2023-02-19T10:38:35.549Z,11.90
2023-02-19T10:41:07.964Z,12.21
2023-02-19T10:43:43.916Z,12.42
2023-02-19T10:46:21.366Z,12.70
2023-02-19T10:48:58.415Z,13.01
2023-02-19T10:51:52.381Z,13.62
2023-02-19T10:54:29.740Z,12.75
2023-02-19T10:57:15.566Z,13.64
2023-02-19T10:59:52.516Z,14.52
2023-02-19T11:02:21.481Z,15.11
2023-02-19T11:05:09.817Z,14.90
2023-02-19T11:07:37.774Z,15.65
2023-02-19T11:10:07.140Z,16.08
2023-02-19T11:12:35.125Z,17.00
2023-02-19T11:15:19.974Z,16.93
2023-02-19T11:18:04.990Z,16.70
2023-02-19T11:20:32.389Z,15.83
2023-02-19T11:23:06.528Z,16.45
2023-02-19T11:25:33.758Z,16.77
2023-02-19T11:28:07.468Z,17.69
2023-02-19T11:30:38.953Z,18.49
2023-02-19T11:33:19.759Z,17.81
2023-02-19T11:35:48.235Z,17.58
2023-02-19T11:38:17.208Z,18.75
2023-02-19T11:41:14.629Z,18.79
2023-02-19T11:44:12.757Z,19.02
2023-02-19T11:46:53.941Z,18.39
2023-02-19T11:49:54.466Z,19.29
2023-02-19T11:52:27.066Z,20.14
2023-02-19T11:55:10.696Z,20.08
2023-02-19T11:57:47.901Z,20.60
2023-02-19T12:00:22.493Z,20.43
2023-02-19T12:03:17.140Z,19.34
2023-02-19T12:06:02.289Z,19.12
2023-02-19T12:09:06.382Z,17.91
2023-02-19T12:11:41.031Z,17.51
2023-02-19T12:14:45.338Z,18.31
2023-02-19T12:17:24.546Z,18.96
2023-02-19T12:20:08.126Z,18.98
2023-02-19T12:23:01.671Z,19.59
2023-02-19T12:25:28.440Z,20.40
2023-02-19T12:28:21.374Z,20.78
2023-02-19T12:31:12.701Z,21.01
2023-02-19T12:33:42.260Z,20.96
2023-02-19T12:36:24.259Z,20.14
2023-02-19T12:39:18.920Z,21.16
2023-02-19T12:42:03.305Z,22.10
2023-02-19T12:44:42.904Z,22.69
2023-02-19T12:47:19.369Z,22.89
2023-02-19T12:50:09.760Z,23.90
2023-02-19T12:52:41.448Z,24.69
2023-02-19T12:55:22.656Z,24.15
2023-02-19T12:57:51.291Z,24.23
2023-02-19T13:00:37.199Z,24.04
2023-02-19T13:03:20.894Z,24.57
2023-02-19T13:06:32.585Z,25.12
2023-02-19T13:09:21.075Z,25.39
2023-02-19T13:11:56.288Z,25.62
2023-02-19T13:14:41.697Z,25.40
2023-02-19T13:17:20.287Z,25.30
2023-02-19T13:19:50.549Z,25.56
2023-02-19T13:22:59.689Z,25.84
2023-02-19T13:25:44.194Z,26.12
2023-02-19T13:28:18.694Z,27.79
2023-02-19T13:31:24.994Z,27.10
2023-02-19T13:34:00.692Z,27.01
2023-02-19T13:36:29.733Z,27.20
2023-02-19T13:38:57.665Z,27.44
2023-02-19T13:41:35.309Z,27.22
2023-02-19T13:44:04.983Z,27.44
2023-02-19T13:46:41.550Z,27.51
2023-02-19T13:49:31.539Z,28.10
2023-02-19T13:52:01.154Z,28.30
2023-02-19T13:54:33.531Z,28.46
2023-02-19T13:57:24.896Z,28.73
2023-02-19T13:59:53.086Z,28.56
2023-02-19T14:02:34.015Z,29.29
2023-02-19T14:05:10.266Z,28.87
2023-02-19T14:07:49.178Z,28.42
2023-02-19T14:10:50.945Z,28.39
2023-02-19T14:13:56.374Z,28.40
2023-02-19T14:16:49.493Z,28.10
2023-02-19T14:19:41.921Z,28.78
2023-02-19T14:22:57.992Z,28.50
2023-02-19T14:25:30.271Z,27.94
2023-02-19T14:28:06.036Z,27.57
2023-02-19T14:30:34.492Z,27.45
2023-02-19T14:33:10.523Z,27.48
2023-02-19T14:35:44.365Z,27.73
2023-02-19T14:38:20.216Z,27.86
2023-02-19T14:40:48.781Z,27.80
2023-02-19T14:43:19.499Z,27.60
2023-02-19T14:45:52.542Z,27.97
2023-02-19T14:48:28.497Z,27.49
2023-02-19T14:51:04.245Z,27.68
2023-02-19T14:53:36.246Z,27.34
2023-02-19T14:56:04.206Z,27.13
2023-02-19T14:58:33.753Z,26.99
2023-02-19T15:01:00.411Z,26.63
2023-02-19T15:03:33.915Z,26.94
2023-02-19T15:06:12.832Z,26.56
2023-02-19T15:08:46.760Z,26.49
2023-02-19T15:11:19.688Z,26.37
2023-02-19T15:13:57.292Z,26.72
2023-02-19T15:16:26.353Z,26.79
2023-02-19T15:18:55.211Z,26.70
2023-02-19T15:21:25.970Z,26.76
2023-02-19T15:24:01.962Z,26.97
2023-02-19T15:26:35.682Z,26.38
2023-02-19T15:29:11.455Z,26.23
2023-02-19T15:31:46.398Z,26.11
2023-02-19T15:34:22.369Z,25.92
2023-02-19T15:36:51.625Z,25.84
2023-02-19T15:39:24.174Z,26.11
2023-02-19T15:41:53.620Z,25.97
2023-02-19T15:44:49.282Z,25.72
2023-02-19T15:47:35.038Z,25.50
2023-02-19T15:50:09.345Z,25.32
2023-02-19T15:52:50.173Z,25.10
2023-02-19T15:55:25.941Z,24.69
2023-02-19T15:58:00.427Z,24.48
2023-02-19T16:00:36.587Z,24.07
2023-02-19T16:03:05.530Z,23.57
2023-02-19T16:05:39.148Z,23.63
2023-02-19T16:08:11.612Z,23.42
2023-02-19T16:10:38.639Z,23.07
2023-02-19T16:13:08.212Z,23.27
2023-02-19T16:15:35.854Z,23.15
2023-02-19T16:18:02.653Z,23.17
2023-02-19T16:20:32.188Z,22.76
2023-02-19T16:23:05.634Z,22.32
2023-02-19T16:25:42.659Z,22.01
2023-02-19T16:28:27.281Z,22.05
2023-02-19T16:31:21.561Z,21.67
2023-02-19T16:33:49.998Z,21.47
2023-02-19T16:36:41.454Z,21.04
2023-02-19T16:39:08.111Z,20.67
2023-02-19T16:41:40.544Z,20.34
2023-02-19T16:44:25.404Z,19.87
2023-02-19T16:46:54.931Z,19.33
2023-02-19T16:49:23.519Z,18.80
2023-02-19T16:51:50.990Z,18.16
2023-02-19T16:54:17.555Z,17.42
2023-02-19T16:56:44.230Z,17.15
2023-02-19T16:59:10.755Z,16.47
2023-02-19T17:01:38.202Z,15.53
2023-02-19T17:04:08.160Z,15.56
2023-02-19T17:06:37.785Z,15.01
2023-02-19T17:09:06.519Z,15.12
2023-02-19T17:11:33.262Z,14.75
2023-02-19T17:14:00.303Z,15.18
2023-02-19T17:16:29.194Z,15.12
2023-02-19T17:18:55.875Z,14.54
2023-02-19T17:21:31.846Z,14.82
2023-02-19T17:23:58.515Z,14.72
2023-02-19T17:26:27.967Z,14.59
2023-02-19T17:28:59.106Z,14.47
2023-02-19T17:31:26.025Z,14.37
2023-02-19T17:33:53.270Z,14.07
2023-02-19T17:36:26.918Z,14.03
2023-02-19T17:38:54.928Z,14.19
2023-02-19T17:41:21.631Z,14.06
2023-02-19T17:43:50.372Z,13.58
2023-02-19T17:46:23.648Z,13.57
2023-02-19T17:48:50.975Z,13.95
2023-02-19T17:51:17.668Z,13.59
2023-02-19T17:53:46.448Z,13.00
2023-02-19T17:56:23.042Z,13.59
2023-02-19T17:58:49.984Z,13.59
2023-02-19T18:01:16.780Z,13.48
2023-02-19T18:03:43.881Z,13.19
2023-02-19T18:06:11.244Z,13.11
2023-02-19T18:08:38.059Z,12.91
2023-02-19T18:11:06.740Z,13.20
2023-02-19T18:13:33.513Z,12.48
2023-02-19T18:16:00.055Z,13.08
2023-02-19T18:18:26.658Z,13.24
2023-02-19T18:20:53.339Z,12.95
2023-02-19T18:23:20.686Z,12.55
2023-02-19T18:25:47.529Z,12.90
2023-02-19T18:28:15.035Z,12.89
2023-02-19T18:30:42.092Z,12.74
2023-02-19T18:33:11.014Z,12.25
2023-02-19T18:35:38.462Z,12.51
2023-02-19T18:38:05.627Z,12.40
2023-02-19T18:40:32.219Z,12.38
2023-02-19T18:42:59.031Z,12.26
2023-02-19T18:45:25.919Z,11.86
2023-02-19T18:47:52.644Z,11.94
2023-02-19T18:50:19.918Z,12.09
2023-02-19T18:52:47.112Z,11.57
2023-02-19T18:55:13.941Z,11.29
2023-02-19T18:57:40.774Z,11.20
2023-02-19T19:00:08.240Z,11.39
2023-02-19T19:02:47.362Z,11.15
2023-02-19T19:05:23.630Z,11.54
2023-02-19T19:07:55.257Z,10.96
2023-02-19T19:10:22.962Z,11.33
2023-02-19T19:12:50.197Z,11.43
2023-02-19T19:15:18.434Z,11.12
2023-02-19T19:17:46.388Z,10.80
2023-02-19T19:20:13.138Z,11.08
2023-02-19T19:22:40.148Z,10.57
2023-02-19T19:25:07.393Z,10.47
2023-02-19T19:27:33.985Z,10.29
2023-02-19T19:30:00.713Z,10.56
2023-02-19T19:32:27.435Z,10.01
2023-02-19T19:34:54.100Z,10.47
2023-02-19T19:37:20.773Z,9.64
2023-02-19T19:39:47.548Z,10.13
2023-02-19T19:42:14.318Z,9.55
2023-02-19T19:44:41.054Z,10.02
2023-02-19T19:47:07.574Z,9.79
2023-02-19T19:49:34.246Z,9.53
2023-02-19T19:52:01.322Z,9.92
2023-02-19T19:54:28.835Z,9.56
2023-02-19T19:56:55.677Z,9.42
2023-02-19T19:59:23.102Z,9.97
2023-02-19T20:01:54.543Z,9.61
2023-02-19T20:04:22.582Z,9.42
2023-02-19T20:06:49.669Z,9.41
2023-02-19T20:09:17.971Z,9.63
2023-02-19T20:11:50.080Z,9.70
2023-02-19T20:14:18.354Z,9.16
2023-02-19T20:16:47.372Z,9.28
2023-02-19T20:19:18.328Z,8.96
2023-02-19T20:21:47.246Z,9.16
2023-02-19T20:24:24.349Z,9.44
2023-02-19T20:26:53.859Z,9.18
2023-02-19T20:29:20.561Z,9.20
2023-02-19T20:31:49.489Z,9.51
2023-02-19T20:34:17.018Z,9.12
2023-02-19T20:36:44.666Z,9.03
2023-02-19T20:39:11.861Z,9.50
2023-02-19T20:41:38.609Z,9.09
2023-02-19T20:44:05.936Z,8.89
2023-02-19T20:46:32.648Z,8.80
2023-02-19T20:48:59.359Z,9.12
2023-02-19T20:51:26.006Z,8.78
2023-02-19T20:53:52.748Z,9.00
2023-02-19T20:56:19.392Z,8.77
2023-02-19T20:58:46.225Z,8.91
2023-02-19T21:01:13.012Z,9.03
2023-02-19T21:03:40.883Z,8.70
2023-02-19T21:06:07.627Z,9.04
2023-02-19T21:08:34.341Z,8.76
2023-02-19T21:11:00.976Z,8.96
2023-02-19T21:13:29.926Z,9.37
2023-02-19T21:15:56.860Z,8.97
2023-02-19T21:18:23.589Z,8.56
2023-02-19T21:20:50.210Z,9.08
2023-02-19T21:23:16.965Z,8.69
2023-02-19T21:25:43.532Z,9.09
2023-02-19T21:28:10.762Z,9.03
2023-02-19T21:30:37.423Z,8.73
2023-02-19T21:33:04.680Z,8.96
2023-02-19T21:35:31.317Z,8.76
2023-02-19T21:37:58.071Z,8.31
2023-02-19T21:40:25.669Z,8.73
2023-02-19T21:42:52.334Z,7.65
2023-02-19T21:45:18.920Z,8.55
2023-02-19T21:47:46.231Z,8.36
2023-02-19T21:50:12.973Z,8.58
2023-02-19T21:52:39.572Z,8.29
2023-02-19T21:55:06.480Z,8.30
2023-02-19T21:57:33.275Z,8.31
2023-02-19T21:59:59.853Z,8.09
2023-02-19T22:02:26.528Z,7.60
2023-02-19T22:04:53.820Z,7.72
2023-02-19T22:07:21.769Z,7.97
2023-02-19T22:09:48.779Z,7.93
2023-02-19T22:12:15.860Z,7.83
2023-02-19T22:14:42.735Z,7.73
2023-02-19T22:17:09.427Z,7.34
2023-02-19T22:19:36.091Z,7.64
2023-02-19T22:22:02.728Z,7.50
2023-02-19T22:24:29.282Z,7.35
2023-02-19T22:26:57.417Z,7.45
2023-02-19T22:29:24.748Z,7.51
2023-02-19T22:31:51.648Z,7.39
2023-02-19T22:34:18.531Z,7.39
2023-02-19T22:36:45.626Z,6.99
2023-02-19T22:39:18.831Z,7.09
2023-02-19T22:41:45.490Z,6.71
2023-02-19T22:44:12.442Z,7.26
2023-02-19T22:46:39.010Z,7.19
2023-02-19T22:49:06.728Z,6.66
2023-02-19T22:51:35.482Z,6.82
2023-02-19T22:54:02.253Z,7.23
2023-02-19T22:56:29.313Z,7.09
2023-02-19T22:58:57.286Z,7.28
2023-02-19T23:01:24.646Z,7.36
2023-02-19T23:04:00.162Z,7.39
2023-02-19T23:06:32.138Z,7.41
2023-02-19T23:09:03.324Z,7.47
2023-02-19T23:11:33.163Z,7.55
2023-02-19T23:14:00.162Z,7.51
2023-02-19T23:16:27.818Z,7.22
2023-02-19T23:18:54.848Z,7.30
2023-02-19T23:21:22.656Z,7.82
2023-02-19T23:23:49.666Z,7.89
2023-02-19T23:26:16.778Z,8.04
2023-02-19T23:28:44.539Z,7.85
2023-02-19T23:31:11.972Z,7.92
2023-02-19T23:33:38.817Z,7.44
2023-02-19T23:36:06.335Z,7.84
2023-02-19T23:38:33.394Z,7.66
2023-02-19T23:41:00.296Z,7.83
2023-02-19T23:43:27.074Z,7.75
2023-02-19T23:45:53.655Z,7.68
2023-02-19T23:48:20.356Z,7.74
2023-02-19T23:50:47.105Z,7.43
2023-02-19T23:53:13.751Z,7.58
2023-02-19T23:55:40.352Z,7.54
2023-02-19T23:58:06.940Z,7.31
